PGT1548 OKKK-ORBI
Flight info
| Callsign | PGT1548 |
|---|---|
| Flight time | 1h 7m |
| Altitude | 36000 |
| Route | RALKA L602 ALPET L718 DEBNI |
| Aircraft | A20N/M-SDE2E3FGHIRWXY/LB1 |
Departure
| Time | 2026-04-23 22:07 |
|---|---|
| Airport | Kuwait International Airport (OKKK) |
Arrival
| Time | 2026-04-23 23:14 |
|---|---|
| Airport | Baghdad International Airport / New Al Muthana Air Base (ORBI) |
| Time | Latitude | Longitude | Altitude | Speed | Heading |
|---|---|---|---|---|---|
| 2026-04-23 21:13 | 29.23744 | 47.97318 | 154 ft | 0 kts | 273° |
| 2026-04-23 21:47 | 29.23744 | 47.97319 | 154 ft | 1 kts | 273° |
| 2026-04-23 21:47 | 29.23743 | 47.97336 | 155 ft | 2 kts | 274° |
| 2026-04-23 21:47 | 29.23741 | 47.97353 | 155 ft | 2 kts | 275° |
| 2026-04-23 21:48 | 29.23740 | 47.97369 | 155 ft | 2 kts | 275° |
| 2026-04-23 21:48 | 29.23739 | 47.97385 | 156 ft | 2 kts | 275° |
| 2026-04-23 21:48 | 29.23738 | 47.97402 | 156 ft | 2 kts | 277° |
| 2026-04-23 21:48 | 29.23733 | 47.97419 | 156 ft | 2 kts | 293° |
| 2026-04-23 21:49 | 29.23726 | 47.97434 | 156 ft | 2 kts | 306° |
| 2026-04-23 21:49 | 29.23716 | 47.97447 | 156 ft | 2 kts | 318° |
| 2026-04-23 21:49 | 29.23704 | 47.97458 | 156 ft | 2 kts | 330° |
| 2026-04-23 21:49 | 29.23690 | 47.97464 | 156 ft | 2 kts | 349° |
| 2026-04-23 21:50 | 29.23675 | 47.97464 | 156 ft | 2 kts | 20° |
| 2026-04-23 21:50 | 29.23663 | 47.97454 | 156 ft | 2 kts | 49° |
| 2026-04-23 21:50 | 29.23655 | 47.97440 | 155 ft | 2 kts | 75° |
| 2026-04-23 21:50 | 29.23651 | 47.97425 | 155 ft | 1 kts | 66° |
| 2026-04-23 21:51 | 29.23651 | 47.97424 | 155 ft | 0 kts | 66° |
| 2026-04-23 21:52 | 29.23652 | 47.97427 | 155 ft | 1 kts | 67° |
| 2026-04-23 21:53 | 29.23661 | 47.97452 | 155 ft | 5 kts | 68° |
| 2026-04-23 21:53 | 29.23679 | 47.97505 | 157 ft | 7 kts | 68° |
| 2026-04-23 21:53 | 29.23706 | 47.97577 | 159 ft | 8 kts | 67° |
| 2026-04-23 21:53 | 29.23727 | 47.97636 | 160 ft | 7 kts | 66° |
| 2026-04-23 21:54 | 29.23747 | 47.97690 | 162 ft | 7 kts | 67° |
| 2026-04-23 21:54 | 29.23774 | 47.97761 | 163 ft | 12 kts | 67° |
| 2026-04-23 21:54 | 29.23815 | 47.97871 | 163 ft | 15 kts | 67° |
| 2026-04-23 21:54 | 29.23857 | 47.97979 | 166 ft | 14 kts | 66° |
| 2026-04-23 21:55 | 29.23836 | 47.98073 | 166 ft | 14 kts | 152° |
| 2026-04-23 21:55 | 29.23778 | 47.98109 | 167 ft | 0 kts | 133° |
| 2026-04-23 21:55 | 29.23774 | 47.98114 | 167 ft | 4 kts | 131° |
| 2026-04-23 21:55 | 29.23775 | 47.98152 | 167 ft | 6 kts | 59° |
| 2026-04-23 21:56 | 29.23794 | 47.98190 | 167 ft | 2 kts | 62° |
| 2026-04-23 21:56 | 29.23806 | 47.98221 | 166 ft | 7 kts | 76° |
| 2026-04-23 21:56 | 29.23773 | 47.98275 | 167 ft | 9 kts | 161° |
| 2026-04-23 21:56 | 29.23685 | 47.98315 | 169 ft | 19 kts | 155° |
| 2026-04-23 21:57 | 29.23566 | 47.98378 | 171 ft | 18 kts | 155° |
| 2026-04-23 21:57 | 29.23456 | 47.98436 | 173 ft | 16 kts | 156° |
| 2026-04-23 21:57 | 29.23355 | 47.98492 | 175 ft | 15 kts | 154° |
| 2026-04-23 21:57 | 29.23260 | 47.98542 | 176 ft | 14 kts | 155° |
| 2026-04-23 21:58 | 29.23166 | 47.98592 | 177 ft | 14 kts | 155° |
| 2026-04-23 21:58 | 29.23076 | 47.98639 | 178 ft | 14 kts | 154° |
| 2026-04-23 21:58 | 29.22988 | 47.98686 | 179 ft | 14 kts | 155° |
| 2026-04-23 21:58 | 29.22893 | 47.98735 | 180 ft | 15 kts | 156° |
| 2026-04-23 21:59 | 29.22796 | 47.98782 | 181 ft | 15 kts | 155° |
| 2026-04-23 21:59 | 29.22703 | 47.98836 | 182 ft | 14 kts | 153° |
| 2026-04-23 21:59 | 29.22610 | 47.98886 | 183 ft | 16 kts | 155° |
| 2026-04-23 22:00 | 29.22343 | 47.99028 | 188 ft | 24 kts | 155° |
| 2026-04-23 22:00 | 29.22186 | 47.99112 | 190 ft | 24 kts | 155° |
| 2026-04-23 22:00 | 29.22036 | 47.99191 | 192 ft | 22 kts | 155° |
| 2026-04-23 22:00 | 29.21898 | 47.99265 | 193 ft | 21 kts | 155° |
| 2026-04-23 22:01 | 29.21767 | 47.99334 | 195 ft | 20 kts | 155° |
| 2026-04-23 22:01 | 29.21642 | 47.99400 | 196 ft | 19 kts | 155° |
| 2026-04-23 22:01 | 29.21523 | 47.99462 | 198 ft | 18 kts | 157° |
| 2026-04-23 22:01 | 29.21409 | 47.99523 | 198 ft | 17 kts | 155° |
| 2026-04-23 22:02 | 29.21303 | 47.99582 | 199 ft | 16 kts | 152° |
| 2026-04-23 22:02 | 29.21213 | 47.99629 | 200 ft | 13 kts | 155° |
| 2026-04-23 22:02 | 29.21160 | 47.99670 | 201 ft | 8 kts | 122° |
| 2026-04-23 22:02 | 29.21160 | 47.99733 | 202 ft | 7 kts | 65° |
| 2026-04-23 22:03 | 29.21168 | 47.99752 | 203 ft | 0 kts | 64° |
| 2026-04-23 22:03 | 29.21169 | 47.99754 | 203 ft | 1 kts | 64° |
| 2026-04-23 22:03 | 29.21180 | 47.99779 | 203 ft | 6 kts | 64° |
| 2026-04-23 22:03 | 29.21217 | 47.99820 | 204 ft | 7 kts | 22° |
| 2026-04-23 22:04 | 29.21271 | 47.99828 | 204 ft | 6 kts | 2° |
| 2026-04-23 22:04 | 29.21313 | 47.99826 | 204 ft | 6 kts | 351° |
| 2026-04-23 22:04 | 29.21350 | 47.99812 | 204 ft | 5 kts | 333° |
| 2026-04-23 22:04 | 29.21372 | 47.99800 | 204 ft | 2 kts | 335° |
| 2026-04-23 22:05 | 29.21382 | 47.99795 | 203 ft | 0 kts | 335° |
| 2026-04-23 22:06 | 29.21386 | 47.99793 | 203 ft | 4 kts | 335° |
| 2026-04-23 22:06 | 29.21593 | 47.99682 | 201 ft | 70 kts | 334° |
| 2026-04-23 22:06 | 29.22254 | 47.99330 | 193 ft | 136 kts | 335° |
| 2026-04-23 22:06 | 29.23256 | 47.98810 | 336 ft | 171 kts | 334° |
| 2026-04-23 22:07 | 29.24343 | 47.98252 | 956 ft | 171 kts | 334° |
| 2026-04-23 22:07 | 29.25400 | 47.97725 | 1695 ft | 166 kts | 334° |
| 2026-04-23 22:07 | 29.26451 | 47.97214 | 2339 ft | 166 kts | 341° |
| 2026-04-23 22:07 | 29.27585 | 47.97234 | 2948 ft | 168 kts | 23° |
| 2026-04-23 22:08 | 29.28412 | 47.98131 | 3550 ft | 172 kts | 57° |
| 2026-04-23 22:08 | 29.29001 | 47.99406 | 3969 ft | 189 kts | 60° |
| 2026-04-23 22:08 | 29.29650 | 48.00774 | 4450 ft | 204 kts | 60° |
| 2026-04-23 22:08 | 29.30353 | 48.02246 | 4914 ft | 221 kts | 60° |
| 2026-04-23 22:09 | 29.31116 | 48.03846 | 5286 ft | 244 kts | 60° |
| 2026-04-23 22:09 | 29.31970 | 48.05648 | 5800 ft | 264 kts | 60° |
| 2026-04-23 22:09 | 29.32861 | 48.07536 | 6407 ft | 279 kts | 60° |
| 2026-04-23 22:09 | 29.33791 | 48.09506 | 7236 ft | 285 kts | 61° |
| 2026-04-23 22:10 | 29.34722 | 48.11483 | 8045 ft | 290 kts | 61° |
| 2026-04-23 22:10 | 29.35914 | 48.13355 | 8803 ft | 297 kts | 39° |
| 2026-04-23 22:10 | 29.37767 | 48.14358 | 9558 ft | 301 kts | 7° |
| 2026-04-23 22:10 | 29.39851 | 48.14129 | 10315 ft | 300 kts | 335° |
| 2026-04-23 22:11 | 29.41597 | 48.12827 | 10853 ft | 309 kts | 317° |
| 2026-04-23 22:11 | 29.43301 | 48.11209 | 11276 ft | 326 kts | 319° |
| 2026-04-23 22:11 | 29.45142 | 48.09573 | 11714 ft | 342 kts | 320° |
| 2026-04-23 22:11 | 29.47052 | 48.07952 | 12429 ft | 348 kts | 321° |
| 2026-04-23 22:12 | 29.49012 | 48.06329 | 13239 ft | 349 kts | 322° |
| 2026-04-23 22:12 | 29.50993 | 48.04713 | 14035 ft | 351 kts | 322° |
| 2026-04-23 22:12 | 29.53009 | 48.03081 | 14816 ft | 353 kts | 321° |
| 2026-04-23 22:12 | 29.55011 | 48.01465 | 15561 ft | 356 kts | 321° |
| 2026-04-23 22:13 | 29.57028 | 47.99839 | 16290 ft | 358 kts | 321° |
| 2026-04-23 22:13 | 29.59086 | 47.98182 | 17011 ft | 360 kts | 321° |
| 2026-04-23 22:13 | 29.61119 | 47.96545 | 17708 ft | 362 kts | 321° |
| 2026-04-23 22:13 | 29.63172 | 47.94892 | 18377 ft | 364 kts | 320° |
| 2026-04-23 22:14 | 29.65272 | 47.93203 | 19034 ft | 367 kts | 320° |
| 2026-04-23 22:14 | 29.67366 | 47.91517 | 19645 ft | 370 kts | 320° |
| 2026-04-23 22:14 | 29.69453 | 47.89835 | 20244 ft | 373 kts | 319° |
| 2026-04-23 22:14 | 29.71582 | 47.88118 | 20830 ft | 376 kts | 319° |
| 2026-04-23 22:15 | 29.73751 | 47.86369 | 21391 ft | 379 kts | 319° |
| 2026-04-23 22:15 | 29.75897 | 47.84636 | 21951 ft | 382 kts | 318° |
| 2026-04-23 22:15 | 29.78065 | 47.82885 | 22522 ft | 384 kts | 318° |
| 2026-04-23 22:15 | 29.80282 | 47.81094 | 23077 ft | 387 kts | 318° |
| 2026-04-23 22:16 | 29.82469 | 47.79324 | 23619 ft | 389 kts | 318° |
| 2026-04-23 22:16 | 29.84697 | 47.77521 | 24140 ft | 391 kts | 318° |
| 2026-04-23 22:16 | 29.86945 | 47.75701 | 24613 ft | 395 kts | 317° |
| 2026-04-23 22:16 | 29.89173 | 47.73895 | 25067 ft | 398 kts | 317° |
| 2026-04-23 22:17 | 29.91460 | 47.72041 | 25518 ft | 401 kts | 317° |
| 2026-04-23 22:17 | 29.93745 | 47.70187 | 25939 ft | 404 kts | 317° |
| 2026-04-23 22:17 | 29.96056 | 47.68316 | 26389 ft | 406 kts | 317° |
| 2026-04-23 22:17 | 29.98350 | 47.66454 | 26804 ft | 409 kts | 317° |
| 2026-04-23 22:18 | 30.00688 | 47.64556 | 27180 ft | 412 kts | 317° |
| 2026-04-23 22:18 | 30.03049 | 47.62636 | 27580 ft | 415 kts | 316° |
| 2026-04-23 22:18 | 30.05399 | 47.60725 | 27960 ft | 417 kts | 316° |
| 2026-04-23 22:18 | 30.07793 | 47.58777 | 28319 ft | 420 kts | 316° |
| 2026-04-23 22:19 | 30.10164 | 47.56846 | 28717 ft | 421 kts | 316° |
| 2026-04-23 22:19 | 30.12566 | 47.54891 | 29097 ft | 423 kts | 316° |
| 2026-04-23 22:19 | 30.14989 | 47.52918 | 29432 ft | 425 kts | 315° |
| 2026-04-23 22:19 | 30.17421 | 47.50933 | 29702 ft | 429 kts | 315° |
| 2026-04-23 22:20 | 30.19828 | 47.48967 | 30133 ft | 428 kts | 316° |
| 2026-04-23 22:20 | 30.22257 | 47.46988 | 30690 ft | 424 kts | 315° |
| 2026-04-23 22:20 | 30.24661 | 47.45029 | 31218 ft | 420 kts | 315° |
| 2026-04-23 22:20 | 30.27041 | 47.43086 | 31680 ft | 418 kts | 315° |
| 2026-04-23 22:21 | 30.29394 | 47.41161 | 32106 ft | 416 kts | 315° |
| 2026-04-23 22:21 | 30.31764 | 47.39222 | 32492 ft | 415 kts | 314° |
| 2026-04-23 22:21 | 30.34114 | 47.37297 | 32862 ft | 413 kts | 314° |
| 2026-04-23 22:21 | 30.36419 | 47.35407 | 33322 ft | 409 kts | 314° |
| 2026-04-23 22:22 | 30.38719 | 47.33526 | 33881 ft | 404 kts | 313° |
| 2026-04-23 22:22 | 30.41014 | 47.31644 | 34442 ft | 399 kts | 313° |
| 2026-04-23 22:22 | 30.43255 | 47.29798 | 34763 ft | 398 kts | 313° |
| 2026-04-23 22:22 | 30.45523 | 47.27925 | 35057 ft | 398 kts | 313° |
| 2026-04-23 22:23 | 30.47759 | 47.26085 | 35349 ft | 398 kts | 313° |
| 2026-04-23 22:23 | 30.50029 | 47.24214 | 35651 ft | 398 kts | 313° |
| 2026-04-23 22:23 | 30.52267 | 47.22344 | 35903 ft | 397 kts | 311° |
| 2026-04-23 22:23 | 30.54431 | 47.20359 | 35916 ft | 396 kts | 308° |
| 2026-04-23 22:24 | 30.58435 | 47.16075 | 35922 ft | 389 kts | 303° |
| 2026-04-23 22:24 | 30.62025 | 47.11449 | 35922 ft | 385 kts | 300° |
| 2026-04-23 22:25 | 30.65515 | 47.06722 | 35923 ft | 383 kts | 300° |
| 2026-04-23 22:25 | 30.68984 | 47.02012 | 35921 ft | 384 kts | 300° |
| 2026-04-23 22:26 | 30.72458 | 46.97283 | 35919 ft | 385 kts | 300° |
| 2026-04-23 22:26 | 30.75920 | 46.92566 | 35918 ft | 384 kts | 300° |
| 2026-04-23 22:27 | 30.79396 | 46.87826 | 35920 ft | 385 kts | 300° |
| 2026-04-23 22:27 | 30.82843 | 46.83118 | 35922 ft | 383 kts | 300° |
| 2026-04-23 22:28 | 30.86300 | 46.78390 | 35918 ft | 385 kts | 300° |
| 2026-04-23 22:28 | 30.89773 | 46.73631 | 35918 ft | 384 kts | 300° |
| 2026-04-23 22:29 | 30.93225 | 46.68899 | 35913 ft | 384 kts | 300° |
| 2026-04-23 22:29 | 30.96700 | 46.64122 | 35911 ft | 385 kts | 300° |
| 2026-04-23 22:30 | 31.00160 | 46.59372 | 35905 ft | 387 kts | 300° |
| 2026-04-23 22:30 | 31.03635 | 46.54583 | 35900 ft | 386 kts | 300° |
| 2026-04-23 22:31 | 31.07101 | 46.49806 | 35896 ft | 385 kts | 300° |
| 2026-04-23 22:31 | 31.10562 | 46.45033 | 35899 ft | 385 kts | 300° |
| 2026-04-23 22:32 | 31.14018 | 46.40256 | 35902 ft | 385 kts | 300° |
| 2026-04-23 22:32 | 31.17481 | 46.35466 | 35903 ft | 388 kts | 300° |
| 2026-04-23 22:33 | 31.21178 | 46.30809 | 35910 ft | 393 kts | 304° |
| 2026-04-23 22:33 | 31.25252 | 46.26528 | 35910 ft | 398 kts | 307° |
| 2026-04-23 22:34 | 31.29450 | 46.22305 | 35908 ft | 399 kts | 308° |
| 2026-04-23 22:34 | 31.33653 | 46.18079 | 35908 ft | 398 kts | 308° |
| 2026-04-23 22:35 | 31.37842 | 46.13863 | 35908 ft | 399 kts | 308° |
| 2026-04-23 22:35 | 31.42047 | 46.09629 | 35907 ft | 400 kts | 308° |
| 2026-04-23 22:36 | 31.46255 | 46.05383 | 35907 ft | 398 kts | 308° |
| 2026-04-23 22:36 | 31.50443 | 46.01148 | 35910 ft | 399 kts | 308° |
| 2026-04-23 22:37 | 31.54645 | 45.96902 | 35914 ft | 400 kts | 308° |
| 2026-04-23 22:37 | 31.58853 | 45.92636 | 35918 ft | 398 kts | 308° |
| 2026-04-23 22:38 | 31.63047 | 45.88387 | 35913 ft | 400 kts | 308° |
| 2026-04-23 22:38 | 31.67252 | 45.84116 | 35916 ft | 400 kts | 308° |
| 2026-04-23 22:39 | 31.71445 | 45.79855 | 35913 ft | 400 kts | 308° |
| 2026-04-23 22:39 | 31.75662 | 45.75565 | 35914 ft | 401 kts | 308° |
| 2026-04-23 22:40 | 31.79863 | 45.71284 | 35914 ft | 399 kts | 307° |
| 2026-04-23 22:41 | 31.86146 | 45.64867 | 35911 ft | 401 kts | 308° |
| 2026-04-23 22:41 | 31.90369 | 45.60555 | 35915 ft | 400 kts | 308° |
| 2026-04-23 22:42 | 31.94575 | 45.56249 | 35912 ft | 402 kts | 308° |
| 2026-04-23 22:42 | 31.98777 | 45.51940 | 35915 ft | 401 kts | 308° |
| 2026-04-23 22:43 | 32.02998 | 45.47609 | 35731 ft | 400 kts | 308° |
| 2026-04-23 22:43 | 32.05090 | 45.45464 | 35459 ft | 397 kts | 308° |
| 2026-04-23 22:43 | 32.07158 | 45.43339 | 35177 ft | 399 kts | 308° |
| 2026-04-23 22:43 | 32.09273 | 45.41161 | 34901 ft | 401 kts | 308° |
| 2026-04-23 22:44 | 32.11386 | 45.38981 | 34624 ft | 404 kts | 309° |
| 2026-04-23 22:44 | 32.13522 | 45.36779 | 34349 ft | 405 kts | 309° |
| 2026-04-23 22:44 | 32.15646 | 45.34591 | 34084 ft | 405 kts | 309° |
| 2026-04-23 22:44 | 32.17771 | 45.32393 | 33740 ft | 407 kts | 309° |
| 2026-04-23 22:45 | 32.19887 | 45.30208 | 33282 ft | 408 kts | 309° |
| 2026-04-23 22:45 | 32.22019 | 45.28011 | 32596 ft | 411 kts | 309° |
| 2026-04-23 22:45 | 32.24181 | 45.25773 | 31774 ft | 416 kts | 310° |
| 2026-04-23 22:45 | 32.26347 | 45.23527 | 30952 ft | 421 kts | 310° |
| 2026-04-23 22:46 | 32.28569 | 45.21234 | 30337 ft | 420 kts | 311° |
| 2026-04-23 22:46 | 32.30755 | 45.18975 | 29718 ft | 419 kts | 311° |
| 2026-04-23 22:46 | 32.32938 | 45.16719 | 29116 ft | 417 kts | 311° |
| 2026-04-23 22:46 | 32.35099 | 45.14485 | 28580 ft | 414 kts | 311° |
| 2026-04-23 22:47 | 32.37273 | 45.12234 | 28048 ft | 411 kts | 311° |
| 2026-04-23 22:47 | 32.39387 | 45.10043 | 27549 ft | 407 kts | 312° |
| 2026-04-23 22:47 | 32.41519 | 45.07830 | 27051 ft | 403 kts | 312° |
| 2026-04-23 22:47 | 32.43604 | 45.05664 | 26542 ft | 400 kts | 312° |
| 2026-04-23 22:48 | 32.45689 | 45.03495 | 26046 ft | 397 kts | 312° |
| 2026-04-23 22:48 | 32.47742 | 45.01361 | 25531 ft | 394 kts | 312° |
| 2026-04-23 22:48 | 32.49784 | 44.99236 | 25041 ft | 391 kts | 312° |
| 2026-04-23 22:48 | 32.51818 | 44.97116 | 24532 ft | 388 kts | 313° |
| 2026-04-23 22:49 | 32.53838 | 44.95009 | 24046 ft | 385 kts | 313° |
| 2026-04-23 22:49 | 32.55836 | 44.92922 | 23549 ft | 383 kts | 313° |
| 2026-04-23 22:49 | 32.57833 | 44.90838 | 23039 ft | 381 kts | 313° |
| 2026-04-23 22:49 | 32.59808 | 44.88774 | 22535 ft | 379 kts | 313° |
| 2026-04-23 22:50 | 32.61780 | 44.86709 | 22009 ft | 378 kts | 314° |
| 2026-04-23 22:50 | 32.63762 | 44.84636 | 21492 ft | 376 kts | 314° |
| 2026-04-23 22:50 | 32.65712 | 44.82595 | 20985 ft | 374 kts | 314° |
| 2026-04-23 22:50 | 32.67652 | 44.80564 | 20481 ft | 372 kts | 314° |
| 2026-04-23 22:51 | 32.69593 | 44.78530 | 19983 ft | 371 kts | 315° |
| 2026-04-23 22:51 | 32.71512 | 44.76519 | 19479 ft | 369 kts | 315° |
| 2026-04-23 22:51 | 32.73440 | 44.74498 | 18973 ft | 367 kts | 315° |
| 2026-04-23 22:51 | 32.75335 | 44.72507 | 18487 ft | 365 kts | 315° |
| 2026-04-23 22:52 | 32.77235 | 44.70510 | 17986 ft | 364 kts | 315° |
| 2026-04-23 22:52 | 32.79124 | 44.68528 | 17488 ft | 356 kts | 316° |
| 2026-04-23 22:52 | 32.80963 | 44.66595 | 17002 ft | 352 kts | 316° |
| 2026-04-23 22:52 | 32.82787 | 44.64675 | 16540 ft | 350 kts | 316° |
| 2026-04-23 22:53 | 32.84602 | 44.62764 | 16067 ft | 349 kts | 316° |
| 2026-04-23 22:53 | 32.86409 | 44.60861 | 15598 ft | 347 kts | 316° |
| 2026-04-23 22:53 | 32.88207 | 44.58966 | 15129 ft | 345 kts | 316° |
| 2026-04-23 22:53 | 32.90020 | 44.57055 | 14649 ft | 343 kts | 316° |
| 2026-04-23 22:54 | 32.91772 | 44.55209 | 14189 ft | 332 kts | 316° |
| 2026-04-23 22:54 | 32.93470 | 44.53416 | 13741 ft | 328 kts | 316° |
| 2026-04-23 22:54 | 32.95173 | 44.51617 | 13296 ft | 327 kts | 317° |
| 2026-04-23 22:54 | 32.96880 | 44.49813 | 12853 ft | 326 kts | 317° |
| 2026-04-23 22:55 | 32.98572 | 44.48025 | 12409 ft | 325 kts | 317° |
| 2026-04-23 22:55 | 33.00261 | 44.46239 | 11961 ft | 325 kts | 317° |
| 2026-04-23 22:55 | 33.01951 | 44.44451 | 11520 ft | 322 kts | 317° |
| 2026-04-23 22:55 | 33.03591 | 44.42715 | 11088 ft | 312 kts | 317° |
| 2026-04-23 22:56 | 33.05187 | 44.41026 | 10676 ft | 298 kts | 316° |
| 2026-04-23 22:56 | 33.06690 | 44.39433 | 10339 ft | 282 kts | 316° |
| 2026-04-23 22:56 | 33.08112 | 44.37926 | 10245 ft | 261 kts | 316° |
| 2026-04-23 22:56 | 33.09488 | 44.36463 | 10151 ft | 266 kts | 316° |
| 2026-04-23 22:57 | 33.10869 | 44.34994 | 10031 ft | 264 kts | 316° |
| 2026-04-23 22:57 | 33.12221 | 44.33558 | 9807 ft | 258 kts | 316° |
| 2026-04-23 22:57 | 33.13554 | 44.32142 | 9538 ft | 254 kts | 316° |
| 2026-04-23 22:57 | 33.14862 | 44.30752 | 9241 ft | 247 kts | 316° |
| 2026-04-23 22:58 | 33.16135 | 44.29430 | 8973 ft | 244 kts | 319° |
| 2026-04-23 22:58 | 33.17545 | 44.28300 | 8676 ft | 244 kts | 328° |
| 2026-04-23 22:58 | 33.19087 | 44.27423 | 8342 ft | 245 kts | 334° |
| 2026-04-23 22:58 | 33.20679 | 44.26648 | 7989 ft | 245 kts | 335° |
| 2026-04-23 22:59 | 33.22272 | 44.25888 | 7610 ft | 247 kts | 335° |
| 2026-04-23 22:59 | 33.23875 | 44.25121 | 7262 ft | 247 kts | 335° |
| 2026-04-23 22:59 | 33.25446 | 44.24367 | 7063 ft | 243 kts | 335° |
| 2026-04-23 22:59 | 33.26989 | 44.23625 | 6903 ft | 235 kts | 335° |
| 2026-04-23 23:00 | 33.28498 | 44.22894 | 6838 ft | 234 kts | 333° |
| 2026-04-23 23:00 | 33.29979 | 44.22033 | 6699 ft | 234 kts | 327° |
| 2026-04-23 23:00 | 33.31392 | 44.21076 | 6399 ft | 234 kts | 327° |
| 2026-04-23 23:00 | 33.32803 | 44.20101 | 6112 ft | 233 kts | 327° |
| 2026-04-23 23:01 | 33.34196 | 44.19138 | 5843 ft | 233 kts | 327° |
| 2026-04-23 23:01 | 33.35605 | 44.18164 | 5611 ft | 230 kts | 327° |
| 2026-04-23 23:01 | 33.36980 | 44.17217 | 5402 ft | 225 kts | 327° |
| 2026-04-23 23:01 | 33.38321 | 44.16294 | 5174 ft | 222 kts | 327° |
| 2026-04-23 23:02 | 33.39667 | 44.15366 | 4897 ft | 221 kts | 327° |
| 2026-04-23 23:02 | 33.41002 | 44.14445 | 4618 ft | 222 kts | 327° |
| 2026-04-23 23:02 | 33.42330 | 44.13530 | 4353 ft | 222 kts | 328° |
| 2026-04-23 23:02 | 33.43679 | 44.12600 | 4101 ft | 223 kts | 328° |
| 2026-04-23 23:03 | 33.45027 | 44.11672 | 3870 ft | 223 kts | 328° |
| 2026-04-23 23:03 | 33.46380 | 44.10739 | 3652 ft | 223 kts | 328° |
| 2026-04-23 23:03 | 33.47602 | 44.09662 | 3564 ft | 219 kts | 305° |
| 2026-04-23 23:03 | 33.48429 | 44.08117 | 3581 ft | 218 kts | 295° |
| 2026-04-23 23:04 | 33.49142 | 44.06535 | 3574 ft | 218 kts | 295° |
| 2026-04-23 23:04 | 33.49882 | 44.04920 | 3571 ft | 218 kts | 296° |
| 2026-04-23 23:04 | 33.50630 | 44.03353 | 3568 ft | 218 kts | 296° |
| 2026-04-23 23:04 | 33.51397 | 44.01786 | 3567 ft | 219 kts | 297° |
| 2026-04-23 23:05 | 33.52175 | 44.00217 | 3565 ft | 219 kts | 297° |
| 2026-04-23 23:05 | 33.53068 | 43.98707 | 3552 ft | 223 kts | 318° |
| 2026-04-23 23:05 | 33.54447 | 43.97918 | 3557 ft | 225 kts | 354° |
| 2026-04-23 23:05 | 33.55995 | 43.98153 | 3568 ft | 223 kts | 28° |
| 2026-04-23 23:06 | 33.57169 | 43.99287 | 3569 ft | 216 kts | 61° |
| 2026-04-23 23:06 | 33.57685 | 44.00918 | 3572 ft | 207 kts | 91° |
| 2026-04-23 23:06 | 33.57482 | 44.02584 | 3569 ft | 199 kts | 119° |
| 2026-04-23 23:06 | 33.56675 | 44.03886 | 3564 ft | 193 kts | 145° |
| 2026-04-23 23:07 | 33.55524 | 44.04737 | 3569 ft | 192 kts | 153° |
| 2026-04-23 23:07 | 33.54346 | 44.05503 | 3561 ft | 192 kts | 153° |
| 2026-04-23 23:07 | 33.53175 | 44.06257 | 3558 ft | 192 kts | 153° |
| 2026-04-23 23:07 | 33.51987 | 44.07014 | 3557 ft | 193 kts | 153° |
| 2026-04-23 23:08 | 33.50808 | 44.07779 | 3450 ft | 194 kts | 152° |
| 2026-04-23 23:08 | 33.49574 | 44.08594 | 2895 ft | 209 kts | 151° |
| 2026-04-23 23:08 | 33.48311 | 44.09444 | 2876 ft | 200 kts | 151° |
| 2026-04-23 23:08 | 33.47139 | 44.10242 | 2881 ft | 190 kts | 150° |
| 2026-04-23 23:09 | 33.45983 | 44.11034 | 2857 ft | 187 kts | 150° |
| 2026-04-23 23:09 | 33.44914 | 44.11769 | 2893 ft | 168 kts | 150° |
| 2026-04-23 23:09 | 33.43948 | 44.12435 | 2830 ft | 153 kts | 150° |
| 2026-04-23 23:09 | 33.43031 | 44.13066 | 2761 ft | 151 kts | 150° |
| 2026-04-23 23:10 | 33.42128 | 44.13688 | 2690 ft | 151 kts | 150° |
| 2026-04-23 23:10 | 33.41209 | 44.14319 | 2606 ft | 150 kts | 150° |
| 2026-04-23 23:10 | 33.40301 | 44.14943 | 2517 ft | 150 kts | 150° |
| 2026-04-23 23:10 | 33.39393 | 44.15567 | 2399 ft | 149 kts | 150° |
| 2026-04-23 23:11 | 33.38498 | 44.16182 | 2298 ft | 149 kts | 149° |
| 2026-04-23 23:11 | 33.37602 | 44.16797 | 2142 ft | 149 kts | 149° |
| 2026-04-23 23:11 | 33.36724 | 44.17398 | 1937 ft | 140 kts | 149° |
| 2026-04-23 23:11 | 33.35885 | 44.17973 | 1790 ft | 137 kts | 148° |
| 2026-04-23 23:12 | 33.35064 | 44.18536 | 1606 ft | 136 kts | 148° |
| 2026-04-23 23:12 | 33.34248 | 44.19096 | 1419 ft | 135 kts | 148° |
| 2026-04-23 23:12 | 33.33418 | 44.19657 | 1285 ft | 135 kts | 149° |
| 2026-04-23 23:12 | 33.32598 | 44.20202 | 1095 ft | 134 kts | 149° |
| 2026-04-23 23:13 | 33.31788 | 44.20758 | 862 ft | 134 kts | 148° |
| 2026-04-23 23:13 | 33.31001 | 44.21318 | 635 ft | 133 kts | 148° |
| 2026-04-23 23:13 | 33.30200 | 44.21873 | 519 ft | 132 kts | 148° |
| 2026-04-23 23:13 | 33.29400 | 44.22424 | 366 ft | 132 kts | 148° |
| 2026-04-23 23:14 | 33.28603 | 44.22963 | 209 ft | 131 kts | 149° |
| 2026-04-23 23:14 | 33.27821 | 44.23497 | 124 ft | 124 kts | 147° |
| 2026-04-23 23:14 | 33.27214 | 44.23919 | 121 ft | 75 kts | 151° |
| 2026-04-23 23:14 | 33.26921 | 44.24118 | 123 ft | 21 kts | 152° |
| 2026-04-23 23:15 | 33.26788 | 44.24141 | 123 ft | 11 kts | 176° |
| 2026-04-23 23:15 | 33.26704 | 44.24139 | 123 ft | 12 kts | 193° |
| 2026-04-23 23:15 | 33.26658 | 44.24073 | 123 ft | 11 kts | 269° |
| 2026-04-23 23:15 | 33.26707 | 44.24002 | 123 ft | 12 kts | 330° |
| 2026-04-23 23:16 | 33.26786 | 44.23948 | 123 ft | 13 kts | 330° |
| 2026-04-23 23:16 | 33.26868 | 44.23892 | 123 ft | 14 kts | 329° |
| 2026-04-23 23:16 | 33.26955 | 44.23833 | 123 ft | 14 kts | 330° |
| 2026-04-23 23:16 | 33.27046 | 44.23770 | 123 ft | 15 kts | 330° |
| 2026-04-23 23:17 | 33.27140 | 44.23705 | 123 ft | 15 kts | 329° |
| 2026-04-23 23:17 | 33.27231 | 44.23644 | 124 ft | 14 kts | 330° |
| 2026-04-23 23:17 | 33.27318 | 44.23586 | 125 ft | 14 kts | 331° |
| 2026-04-23 23:17 | 33.27372 | 44.23501 | 125 ft | 13 kts | 256° |
| 2026-04-23 23:18 | 33.27325 | 44.23403 | 126 ft | 13 kts | 240° |
| 2026-04-23 23:18 | 33.27277 | 44.23303 | 128 ft | 13 kts | 239° |
| 2026-04-23 23:18 | 33.27233 | 44.23212 | 129 ft | 12 kts | 240° |
| 2026-04-23 23:18 | 33.27197 | 44.23150 | 129 ft | 8 kts | 215° |
| 2026-04-23 23:19 | 33.27157 | 44.23144 | 130 ft | 5 kts | 148° |
| 2026-04-23 23:19 | 33.27124 | 44.23158 | 130 ft | 5 kts | 181° |
| 2026-04-23 23:19 | 33.27093 | 44.23149 | 131 ft | 4 kts | 199° |
| 2026-04-23 23:19 | 33.27066 | 44.23137 | 132 ft | 3 kts | 200° |
| 2026-04-23 23:20 | 33.27052 | 44.23131 | 132 ft | 0 kts | 200° |
| 2026-04-23 23:20 | 33.27047 | 44.23129 | 132 ft | 1 kts | 200° |
| 2026-04-23 23:20 | 33.27040 | 44.23126 | 133 ft | 0 kts | 199° |